Niagara Airport

*Note: All times are displayed in the local standard time of the station location.
**Rain - Equipment is designed to accurately record liquid precipitation; under conditions when precipitation is not in liquid form, the data displayed may not properly reflect rainfall values.

Date Max Temp
(°C)
Min Temp
(°C)
Avg Temp
(°C)
Rain (mm) Avg RH (%)
Fri, Feb 15, 2019 5.1 -4.0 1.3 2.4 71.9
Thu, Feb 14, 2019 4.6 -4.3 -0.4 0.0 67.3
Wed, Feb 13, 2019 1.1 -4.4 -2.4 0.0 76.2
Tue, Feb 12, 2019 2.3 -5.4 -2.3 0.2 85.3
Mon, Feb 11, 2019 -2.2 -5.0 -3.5 0.0 72.1
Sun, Feb 10, 2019 -3.1 -8.7 -5.6 0.0 69.2
Sat, Feb 09, 2019 -3.6 -9.5 -6.7 0.0 61.9
DateTime Avg Temp (°C) Rain (mm) RH (%)
Sat, Feb 16, 2019 15:00 -2.3 0.0 62.5
Sat, Feb 16, 2019 14:00 -2.9 0.0 63.3
Sat, Feb 16, 2019 13:00 -2.8 0.0 63.0
Sat, Feb 16, 2019 12:00 -3.5 0.0 65.6
Sat, Feb 16, 2019 11:00 -3.7 0.0 65.2
Sat, Feb 16, 2019 10:00 -3.5 0.0 63.1
Sat, Feb 16, 2019 09:00 -3.6 0.0 62.2
Sat, Feb 16, 2019 08:00 -4.1 0.0 63.7
Sat, Feb 16, 2019 07:00 -4.1 0.0 65.9
Sat, Feb 16, 2019 06:00 -3.2 0.0 65.2
Sat, Feb 16, 2019 05:00 -3.1 0.0 75.1
Sat, Feb 16, 2019 04:00 -3.5 0.0 76.6
Sat, Feb 16, 2019 03:00 -3.5 0.0 75.8
Sat, Feb 16, 2019 02:00 -3.6 0.0 73.2
Sat, Feb 16, 2019 01:00 -3.7 0.0 71.5
Sat, Feb 16, 2019 00:00 -3.9 0.0 69.6
Fri, Feb 15, 2019 23:00 -3.9 0.0 68.0
Fri, Feb 15, 2019 22:00 -3.6 0.0 66.7
Fri, Feb 15, 2019 21:00 -3.1 0.0 64.6
Fri, Feb 15, 2019 20:00 -2.2 0.0 66.3
Fri, Feb 15, 2019 19:00 -1.7 0.0 65.0
Fri, Feb 15, 2019 18:00 -1.2 0.0 64.6
Fri, Feb 15, 2019 17:00 -0.4 0.0 64.4
Fri, Feb 15, 2019 16:00 0.1 0.0 67.8
Fri, Feb 15, 2019 15:00 0.7 0.0 66.3
Fri, Feb 15, 2019 14:00 1.7 0.0 63.7
Fri, Feb 15, 2019 13:00 2.3 0.0 63.2
Fri, Feb 15, 2019 12:00 2.8 0.0 67.7
Fri, Feb 15, 2019 11:00 3.6 0.0 74.0
Fri, Feb 15, 2019 10:00 4.3 0.0 82.6
Fri, Feb 15, 2019 09:00 4.0 0.0 87.4
Fri, Feb 15, 2019 08:00 4.4 0.2 87.2
Fri, Feb 15, 2019 07:00 4.0 0.2 90.8
Fri, Feb 15, 2019 06:00 3.9 1.0 90.1
Fri, Feb 15, 2019 05:00 3.9 0.8 86.6
Fri, Feb 15, 2019 04:00 4.5 0.2 74.3
Fri, Feb 15, 2019 03:00 3.9 0.0 68.8
Fri, Feb 15, 2019 02:00 2.9 0.0 68.1
Fri, Feb 15, 2019 01:00 4.7 0.0 57.1
Fri, Feb 15, 2019 00:00 3.4 0.0 63.5
Thu, Feb 14, 2019 23:00 4.5 0.0 53.9
Thu, Feb 14, 2019 22:00 1.8 0.0 70.3
Thu, Feb 14, 2019 21:00 0.7 0.0 73.0
Thu, Feb 14, 2019 20:00 0.8 0.0 69.4
Thu, Feb 14, 2019 19:00 1.1 0.0 64.8
Thu, Feb 14, 2019 18:00 1.6 0.0 61.5
Thu, Feb 14, 2019 17:00 2.1 0.0 57.5
Thu, Feb 14, 2019 16:00 2.4 0.0 54.7


asterix Register now to access more data! asterix